Terminal Aerodrome Forecast
Issued by NWS Louisville, KY

Home | Current Version | Previous Version | Graphics & Text | Print | Product List | Glossary On
Versions: 1 2 3 4 5 6 7 8 9 10 11 12 13 14 15 16 17 18 19 20 21 22
000
FTUS43 KLMK 020500
TAFLEX
TAF
KLEX 020527Z 0206/0306 VRB05KT 6SM BR SCT035 BKN080
     FM020700 VRB05KT 5SM -SHRA VCTS SCT025 BKN035CB
     FM020900 18005KT P6SM -SHRA BKN035
     FM021400 18008KT 3SM -TSRA BR BKN025 BKN035CB
     FM021700 19010KT P6SM SCT025 BKN035
     FM030000 17005KT P6SM VCTS BKN035CB=

USA.gov is the U.S. government's official web portal to all federal, state and local government web resources and services.